Time;durP1;ratioP1;P1;durP2;ratioP2;P2;SDS_P1;SDS_P2;PMS_P1;PMS_P2;Temp;Humidity;BMP_temperature;BMP_pressure;BME280_temperature;BME280_humidity;BME280_pressure;Samples;Min_cycle;Max_cycle;Signal;HPM_P1;HPM_P2
2023/05/27 00:00:46;;;;;;;3.07;2.97;;;;;;;;;;5078586;28;20269;-77
2023/05/27 00:03:12;;;;;;;0.10;0.10;;;;;;;;;;5095235;28;20272;-77
2023/05/27 00:05:39;;;;;;;0.10;0.10;;;;;;;;;;5078031;28;20246;-77
2023/05/27 00:08:05;;;;;;;0.10;0.10;;;;;;;;;;5095895;28;20453;-76
2023/05/27 00:10:32;;;;;;;0.10;0.10;;;;;;;;;;5077177;28;20260;-77
2023/05/27 00:13:00;;;;;;;0.10;0.10;;;;;;;;;;5096651;28;20275;-77
2023/05/27 00:15:26;;;;;;;0.10;0.10;;;;;;;;;;5076158;28;20429;-77
2023/05/27 00:17:54;;;;;;;0.33;0.33;;;;;;;;;;5097351;28;20235;-77
2023/05/27 00:20:21;;;;;;;0.10;0.10;;;;;;;;;;5075125;28;20213;-77
2023/05/27 00:22:49;;;;;;;0.10;0.10;;;;;;;;;;5098015;28;20192;-77
2023/05/27 00:25:16;;;;;;;0.10;0.10;;;;;;;;;;5074400;28;20226;-77
2023/05/27 00:27:42;;;;;;;0.10;0.10;;;;;;;;;;5098318;28;20405;-77
2023/05/27 00:30:11;;;;;;;0.10;0.10;;;;;;;;;;5075776;28;20240;-77
2023/05/27 00:32:37;;;;;;;0.10;0.10;;;;;;;;;;5098948;28;20217;-77
2023/05/27 00:35:04;;;;;;;0.10;0.10;;;;;;;;;;5083394;28;20205;-77
2023/05/27 00:37:30;;;;;;;0.10;0.10;;;;;;;;;;5089239;28;20442;-77
2023/05/27 00:39:57;;;;;;;0.20;0.20;;;;;;;;;;5084048;28;20206;-77
2023/05/27 00:42:24;;;;;;;2.20;2.10;;;;;;;;;;5089080;28;20236;-77
2023/05/27 00:44:51;;;;;;;1.27;1.17;;;;;;;;;;5083594;28;20268;-76
2023/05/27 00:47:19;;;;;;;0.10;0.10;;;;;;;;;;5088971;28;20250;-77
2023/05/27 00:49:46;;;;;;;0.10;0.10;;;;;;;;;;5083882;28;20437;-76
2023/05/27 00:52:13;;;;;;;0.10;0.10;;;;;;;;;;5089043;28;20316;-77
2023/05/27 00:54:39;;;;;;;0.10;0.10;;;;;;;;;;5083783;28;20203;-77
2023/05/27 00:57:06;;;;;;;0.10;0.10;;;;;;;;;;5088447;28;20458;-77
2023/05/27 00:59:32;;;;;;;0.10;0.10;;;;;;;;;;5083909;28;20411;-77
2023/05/27 01:01:58;;;;;;;0.10;0.10;;;;;;;;;;5087647;28;20598;-77
2023/05/27 01:04:26;;;;;;;0.10;0.10;;;;;;;;;;5084773;28;20213;-77
2023/05/27 01:06:57;;;;;;;0.10;0.10;;;;;;;;;;5086703;28;20264;-77
2023/05/27 01:09:26;;;;;;;0.10;0.10;;;;;;;;;;5084885;28;20273;-77
2023/05/27 01:11:59;;;;;;;0.10;0.10;;;;;;;;;;5086395;28;20565;-76
2023/05/27 01:14:26;;;;;;;0.30;0.30;;;;;;;;;;5084698;28;20244;-76
2023/05/27 01:16:55;;;;;;;0.20;0.20;;;;;;;;;;5086765;28;20631;-76
2023/05/27 01:19:30;;;;;;;0.10;0.10;;;;;;;;;;5085219;28;20271;-77
2023/05/27 01:21:59;;;;;;;0.10;0.10;;;;;;;;;;5086984;28;20238;-77
2023/05/27 01:24:27;;;;;;;0.10;0.10;;;;;;;;;;5084520;28;20284;-76
2023/05/27 01:26:55;;;;;;;0.20;0.20;;;;;;;;;;5086876;28;20305;-77
2023/05/27 01:29:22;;;;;;;0.10;0.10;;;;;;;;;;5085001;28;20211;-76
2023/05/27 01:31:51;;;;;;;0.10;0.10;;;;;;;;;;5084917;28;20300;-77
2023/05/27 01:34:22;;;;;;;0.10;0.10;;;;;;;;;;5085394;28;20242;-76
2023/05/27 01:36:51;;;;;;;0.10;0.10;;;;;;;;;;5086037;28;20493;-77
2023/05/27 01:39:18;;;;;;;0.10;0.10;;;;;;;;;;5085200;28;20210;-77
2023/05/27 01:41:46;;;;;;;0.10;0.10;;;;;;;;;;5085328;28;20305;-77
2023/05/27 01:44:15;;;;;;;0.10;0.10;;;;;;;;;;5085615;28;20207;-77
2023/05/27 01:46:42;;;;;;;0.10;0.10;;;;;;;;;;5086242;28;20427;-76
2023/05/27 01:49:08;;;;;;;0.10;0.10;;;;;;;;;;5090469;28;20268;-77
2023/05/27 01:51:35;;;;;;;0.93;0.93;;;;;;;;;;5087962;28;20318;-76
2023/05/27 01:54:01;;;;;;;0.10;0.10;;;;;;;;;;5091210;28;20207;-77
2023/05/27 01:56:27;;;;;;;0.23;0.23;;;;;;;;;;5086787;28;20266;-77
2023/05/27 01:58:55;;;;;;;0.10;0.10;;;;;;;;;;5091731;28;20263;-77
2023/05/27 02:01:22;;;;;;;0.10;0.10;;;;;;;;;;5086075;28;20339;-77
2023/05/27 02:03:49;;;;;;;0.10;0.10;;;;;;;;;;5092578;28;20362;-77
2023/05/27 02:06:15;;;;;;;0.10;0.10;;;;;;;;;;5084964;28;20239;-77
2023/05/27 02:08:42;;;;;;;0.10;0.10;;;;;;;;;;5093321;28;20198;-76
2023/05/27 02:11:08;;;;;;;0.10;0.10;;;;;;;;;;5084201;28;20234;-76
2023/05/27 02:13:34;;;;;;;0.10;0.10;;;;;;;;;;5094125;28;20211;-76
2023/05/27 02:16:02;;;;;;;0.10;0.10;;;;;;;;;;5082942;28;20284;-77
2023/05/27 02:18:29;;;;;;;0.10;0.10;;;;;;;;;;5095050;28;20457;-77
2023/05/27 02:20:55;;;;;;;0.10;0.10;;;;;;;;;;5081985;28;20248;-77
2023/05/27 02:23:21;;;;;;;0.10;0.10;;;;;;;;;;5095957;28;20241;-76
2023/05/27 02:25:49;;;;;;;0.10;0.10;;;;;;;;;;5081010;28;20305;-77
2023/05/27 02:28:15;;;;;;;0.10;0.10;;;;;;;;;;5096527;28;20212;-76
2023/05/27 02:30:41;;;;;;;0.10;0.10;;;;;;;;;;5080153;28;20243;-76
2023/05/27 02:33:09;;;;;;;0.10;0.10;;;;;;;;;;5097287;28;20548;-77
2023/05/27 02:35:35;;;;;;;0.10;0.10;;;;;;;;;;5079544;28;20253;-77
2023/05/27 02:38:02;;;;;;;0.10;0.10;;;;;;;;;;5098217;28;20345;-76
2023/05/27 02:40:28;;;;;;;0.10;0.10;;;;;;;;;;5078609;28;20243;-76
2023/05/27 02:42:56;;;;;;;0.10;0.10;;;;;;;;;;5098803;28;20238;-76
2023/05/27 02:45:22;;;;;;;0.10;0.10;;;;;;;;;;5077211;28;20289;-77
2023/05/27 02:47:49;;;;;;;0.10;0.10;;;;;;;;;;5099707;28;20198;-77
2023/05/27 02:50:17;;;;;;;0.10;0.10;;;;;;;;;;5076348;28;20280;-77
2023/05/27 02:52:43;;;;;;;0.10;0.10;;;;;;;;;;5100422;28;20227;-77
2023/05/27 02:55:09;;;;;;;0.20;0.20;;;;;;;;;;5075929;28;20278;-77
2023/05/27 02:57:36;;;;;;;0.10;0.10;;;;;;;;;;5100480;28;20200;-77
2023/05/27 03:00:03;;;;;;;0.10;0.10;;;;;;;;;;5085739;28;20224;-76
2023/05/27 03:02:30;;;;;;;0.10;0.10;;;;;;;;;;5090867;28;20241;-76
2023/05/27 03:04:56;;;;;;;0.10;0.10;;;;;;;;;;5085764;28;20213;-77
2023/05/27 03:07:24;;;;;;;0.10;0.10;;;;;;;;;;5090778;28;20246;-77
2023/05/27 03:09:50;;;;;;;0.10;0.10;;;;;;;;;;5085734;28;20274;-77
2023/05/27 03:12:17;;;;;;;0.10;0.10;;;;;;;;;;5090762;28;20261;-77
2023/05/27 03:14:43;;;;;;;0.10;0.10;;;;;;;;;;5085186;28;20518;-77
2023/05/27 03:17:09;;;;;;;0.10;0.10;;;;;;;;;;5090659;28;20249;-76
2023/05/27 03:19:36;;;;;;;0.87;0.87;;;;;;;;;;5085451;28;20264;-76
2023/05/27 03:22:02;;;;;;;0.10;0.10;;;;;;;;;;5089705;28;20311;-77
2023/05/27 03:24:30;;;;;;;0.10;0.10;;;;;;;;;;5085948;28;20244;-77
2023/05/27 03:26:56;;;;;;;0.10;0.10;;;;;;;;;;5088874;28;20489;-77
2023/05/27 03:29:23;;;;;;;0.10;0.10;;;;;;;;;;5086594;28;20277;-77
2023/05/27 03:31:49;;;;;;;0.10;0.10;;;;;;;;;;5087938;28;20252;-76
2023/05/27 03:34:15;;;;;;;0.10;0.10;;;;;;;;;;5087461;28;20203;-77
2023/05/27 03:36:42;;;;;;;0.10;0.10;;;;;;;;;;5086760;28;20268;-79
2023/05/27 03:39:09;;;;;;;0.10;0.10;;;;;;;;;;5087943;28;20230;-77
2023/05/27 03:41:37;;;;;;;0.10;0.10;;;;;;;;;;5085890;28;20460;-77
2023/05/27 03:44:03;;;;;;;0.10;0.10;;;;;;;;;;5088923;28;20241;-76
2023/05/27 03:46:30;;;;;;;0.10;0.10;;;;;;;;;;5084993;28;20303;-76
2023/05/27 03:48:56;;;;;;;0.10;0.10;;;;;;;;;;5089607;28;20272;-76
2023/05/27 03:51:22;;;;;;;0.10;0.10;;;;;;;;;;5084109;28;20452;-77
2023/05/27 03:53:49;;;;;;;0.10;0.10;;;;;;;;;;5090353;28;20213;-77
2023/05/27 03:56:15;;;;;;;0.10;0.10;;;;;;;;;;5081686;28;20240;-76
2023/05/27 03:58:43;;;;;;;0.10;0.10;;;;;;;;;;5092479;28;20255;-76
2023/05/27 04:01:09;;;;;;;0.10;0.10;;;;;;;;;;5081409;28;20299;-76
2023/05/27 04:03:37;;;;;;;0.10;0.10;;;;;;;;;;5092241;28;20516;-77
2023/05/27 04:06:03;;;;;;;0.10;0.10;;;;;;;;;;5080842;28;20303;-77
2023/05/27 04:08:30;;;;;;;0.10;0.10;;;;;;;;;;5093126;28;20379;-76
2023/05/27 04:10:56;;;;;;;0.10;0.10;;;;;;;;;;5080129;28;20247;-77
2023/05/27 04:13:22;;;;;;;0.10;0.10;;;;;;;;;;5093411;28;20206;-77
2023/05/27 04:15:50;;;;;;;0.10;0.10;;;;;;;;;;5079276;28;20500;-76
2023/05/27 04:18:17;;;;;;;0.10;0.10;;;;;;;;;;5094127;28;20208;-76
2023/05/27 04:20:46;;;;;;;0.10;0.10;;;;;;;;;;5078158;28;20239;-76
2023/05/27 04:23:13;;;;;;;0.13;0.13;;;;;;;;;;5094498;28;20523;-77
2023/05/27 04:25:39;;;;;;;0.10;0.10;;;;;;;;;;5077847;28;20231;-76
2023/05/27 04:28:06;;;;;;;0.10;0.10;;;;;;;;;;5095570;28;20419;-77
2023/05/27 04:30:33;;;;;;;0.10;0.10;;;;;;;;;;5076820;28;20270;-76
2023/05/27 04:33:01;;;;;;;0.10;0.10;;;;;;;;;;5096291;28;20197;-77
2023/05/27 04:35:27;;;;;;;0.10;0.10;;;;;;;;;;5075963;28;20252;-76
2023/05/27 04:37:53;;;;;;;0.10;0.10;;;;;;;;;;5096983;28;20408;-77
2023/05/27 04:40:20;;;;;;;0.10;0.10;;;;;;;;;;5075069;28;20270;-77
2023/05/27 04:42:47;;;;;;;0.10;0.10;;;;;;;;;;5097910;28;20195;-76
2023/05/27 04:45:13;;;;;;;0.10;0.10;;;;;;;;;;5073703;28;20263;-76
2023/05/27 04:47:40;;;;;;;0.10;0.10;;;;;;;;;;5098389;28;20219;-76
2023/05/27 04:50:09;;;;;;;0.10;0.10;;;;;;;;;;5084027;28;20219;-77
2023/05/27 04:52:38;;;;;;;0.10;0.10;;;;;;;;;;5072035;28;20273;-77
2023/05/27 04:55:05;;;;;;;0.10;0.10;;;;;;;;;;5083900;28;20204;-76
2023/05/27 04:57:31;;;;;;;0.10;0.10;;;;;;;;;;5088851;28;20410;-77
2023/05/27 05:00:18;;;;;;;0.10;0.10;;;;;;;;;;5083814;28;20272;-76
2023/05/27 05:02:46;;;;;;;0.10;0.10;;;;;;;;;;5083318;28;20195;-76
2023/05/27 05:05:14;;;;;;;0.10;0.10;;;;;;;;;;5073424;28;20223;-77
2023/05/27 05:07:41;;;;;;;0.10;0.10;;;;;;;;;;5098444;28;20281;-77
2023/05/27 05:10:08;;;;;;;0.10;0.10;;;;;;;;;;5082745;28;20255;-76
2023/05/27 05:12:35;;;;;;;0.10;0.10;;;;;;;;;;5098950;28;20284;-77
2023/05/27 05:15:01;;;;;;;0.10;0.10;;;;;;;;;;5083778;28;20222;-77
2023/05/27 05:17:27;;;;;;;0.10;0.10;;;;;;;;;;5088569;28;20252;-77
2023/05/27 05:19:54;;;;;;;0.10;0.10;;;;;;;;;;5083163;28;20235;-76
2023/05/27 05:22:22;;;;;;;0.10;0.10;;;;;;;;;;5091301;28;20288;-77
2023/05/27 05:24:49;;;;;;;0.10;0.10;;;;;;;;;;5087659;28;20209;-77
2023/05/27 05:27:15;;;;;;;0.10;0.10;;;;;;;;;;5092630;28;20248;-76
2023/05/27 05:29:42;;;;;;;0.10;0.10;;;;;;;;;;5087488;28;20212;-77
2023/05/27 05:32:11;;;;;;;0.10;0.10;;;;;;;;;;5092588;28;20247;-77
2023/05/27 05:34:37;;;;;;;0.43;0.43;;;;;;;;;;5086819;28;20209;-76
2023/05/27 05:37:03;;;;;;;0.10;0.10;;;;;;;;;;5091772;28;20588;-77
2023/05/27 05:39:31;;;;;;;0.10;0.10;;;;;;;;;;5087845;28;20266;-76
2023/05/27 05:41:58;;;;;;;0.10;0.10;;;;;;;;;;5091052;28;20266;-76
2023/05/27 05:44:25;;;;;;;0.00;0.00;;;;;;;;;;5088176;28;20264;-76
2023/05/27 05:46:52;;;;;;;0.20;0.20;;;;;;;;;;5090046;28;20259;-76
2023/05/27 05:49:18;;;;;;;0.10;0.10;;;;;;;;;;5089031;28;20204;-77
2023/05/27 05:51:45;;;;;;;0.10;0.10;;;;;;;;;;5089217;28;20296;-76
2023/05/27 05:54:11;;;;;;;0.10;0.10;;;;;;;;;;5089959;28;20452;-77
2023/05/27 05:56:39;;;;;;;9.00;2.00;;;;;;;;;;5088039;28;20242;-77
2023/05/27 05:59:06;;;;;;;0.10;0.10;;;;;;;;;;5090377;28;20229;-76
2023/05/27 06:01:32;;;;;;;0.10;0.10;;;;;;;;;;5086813;28;20245;-77
2023/05/27 06:04:03;;;;;;;0.10;0.10;;;;;;;;;;5091728;28;20211;-77
2023/05/27 06:06:30;;;;;;;0.10;0.10;;;;;;;;;;5086773;28;20302;-77
2023/05/27 06:08:56;;;;;;;0.10;0.10;;;;;;;;;;5091622;28;20272;-76
2023/05/27 06:11:23;;;;;;;1.47;1.37;;;;;;;;;;5085942;28;20255;-76
2023/05/27 06:13:50;;;;;;;0.10;0.10;;;;;;;;;;5092468;28;20205;-77
2023/05/27 06:16:17;;;;;;;0.10;0.10;;;;;;;;;;5084851;28;20252;-77
2023/05/27 06:18:45;;;;;;;0.10;0.10;;;;;;;;;;5093203;28;20391;-78
2023/05/27 06:21:12;;;;;;;0.10;0.10;;;;;;;;;;5084115;28;20245;-77
2023/05/27 06:23:38;;;;;;;0.10;0.10;;;;;;;;;;5093736;28;20457;-77
2023/05/27 06:26:04;;;;;;;0.10;0.10;;;;;;;;;;5083199;28;20299;-77
2023/05/27 06:28:31;;;;;;;0.40;0.40;;;;;;;;;;5094204;28;20272;-78
2023/05/27 06:30:58;;;;;;;0.10;0.10;;;;;;;;;;5082088;28;20256;-77
2023/05/27 06:33:25;;;;;;;0.10;0.10;;;;;;;;;;5093599;28;20207;-77
2023/05/27 06:35:51;;;;;;;0.10;0.10;;;;;;;;;;5081495;28;20443;-77
2023/05/27 06:38:18;;;;;;;23.33;2.30;;;;;;;;;;5095689;28;20232;-77
2023/05/27 06:40:44;;;;;;;0.10;0.10;;;;;;;;;;5080197;28;20264;-77
2023/05/27 06:43:10;;;;;;;0.10;0.10;;;;;;;;;;5096894;28;20496;-78
2023/05/27 06:45:37;;;;;;;0.10;0.10;;;;;;;;;;5079235;28;20259;-77
2023/05/27 06:48:04;;;;;;;0.10;0.10;;;;;;;;;;5097386;28;20293;-76
2023/05/27 06:50:31;;;;;;;0.10;0.10;;;;;;;;;;5078627;28;20240;-77
2023/05/27 06:52:57;;;;;;;0.10;0.10;;;;;;;;;;5097976;28;20350;-76
2023/05/27 06:55:24;;;;;;;0.10;0.10;;;;;;;;;;5077440;28;20212;-77
2023/05/27 06:57:51;;;;;;;0.10;0.10;;;;;;;;;;5098578;28;20261;-78
2023/05/27 07:00:17;;;;;;;0.10;0.10;;;;;;;;;;5076400;28;20505;-77
2023/05/27 07:02:44;;;;;;;0.10;0.10;;;;;;;;;;5100056;28;20260;-76
2023/05/27 07:05:12;;;;;;;0.10;0.10;;;;;;;;;;5075920;28;20448;-77
2023/05/27 07:07:38;;;;;;;0.10;0.10;;;;;;;;;;5100764;28;20214;-77
2023/05/27 07:10:05;;;;;;;0.10;0.10;;;;;;;;;;5085775;28;20278;-76
2023/05/27 07:12:31;;;;;;;0.10;0.10;;;;;;;;;;5090625;28;20251;-76
2023/05/27 07:14:57;;;;;;;0.00;0.00;;;;;;;;;;5085201;28;20333;-77
2023/05/27 07:17:24;;;;;;;0.03;0.03;;;;;;;;;;5090611;28;20245;-76
2023/05/27 07:19:50;;;;;;;0.10;0.10;;;;;;;;;;5085496;28;20221;-77
2023/05/27 07:22:18;;;;;;;0.10;0.10;;;;;;;;;;5090359;28;20313;-76
2023/05/27 07:24:45;;;;;;;0.10;0.10;;;;;;;;;;5085360;28;20272;-77
2023/05/27 07:27:11;;;;;;;0.10;0.10;;;;;;;;;;5090208;28;20414;-77
2023/05/27 07:29:37;;;;;;;0.10;0.10;;;;;;;;;;5085163;28;20269;-77
2023/05/27 07:32:04;;;;;;;0.10;0.10;;;;;;;;;;5090175;28;20240;-76
2023/05/27 07:34:30;;;;;;;0.10;0.10;;;;;;;;;;5085930;28;20214;-77
2023/05/27 07:36:57;;;;;;;0.10;0.10;;;;;;;;;;5089302;28;20230;-77
2023/05/27 07:39:25;;;;;;;0.10;0.10;;;;;;;;;;5086407;28;20214;-77
2023/05/27 07:41:51;;;;;;;0.10;0.10;;;;;;;;;;5087902;28;20305;-76
2023/05/27 07:44:18;;;;;;;0.10;0.10;;;;;;;;;;5086197;28;20249;-77
2023/05/27 07:46:44;;;;;;;0.10;0.10;;;;;;;;;;5086955;28;20273;-77
2023/05/27 07:49:11;;;;;;;0.10;0.10;;;;;;;;;;5087668;28;20207;-77
2023/05/27 07:51:37;;;;;;;0.10;0.10;;;;;;;;;;5085979;28;20243;-78
2023/05/27 07:54:04;;;;;;;0.10;0.10;;;;;;;;;;5088400;28;20203;-77
2023/05/27 07:56:34;;;;;;;2.47;2.37;;;;;;;;;;5085043;28;20243;-77
2023/05/27 07:59:00;;;;;;;0.10;0.10;;;;;;;;;;5089016;28;20219;-78
2023/05/27 08:01:30;;;;;;;0.10;0.10;;;;;;;;;;5084518;28;20268;-77
2023/05/27 08:03:56;;;;;;;0.10;0.10;;;;;;;;;;5089160;28;20272;-77
2023/05/27 08:06:23;;;;;;;0.10;0.10;;;;;;;;;;5084104;28;20483;-77
2023/05/27 08:08:49;;;;;;;0.10;0.10;;;;;;;;;;5090129;28;20420;-77
2023/05/27 08:11:15;;;;;;;0.00;0.00;;;;;;;;;;5082874;28;20243;-76
2023/05/27 08:13:44;;;;;;;0.10;0.10;;;;;;;;;;5091296;28;20212;-78
2023/05/27 08:16:10;;;;;;;0.10;0.10;;;;;;;;;;5082321;28;20245;-77
2023/05/27 08:18:37;;;;;;;0.10;0.10;;;;;;;;;;5091744;28;20200;-77
2023/05/27 08:21:03;;;;;;;0.10;0.10;;;;;;;;;;5081395;28;20261;-78
2023/05/27 08:23:30;;;;;;;0.10;0.10;;;;;;;;;;5092757;28;20200;-73
2023/05/27 08:26:00;;;;;;;0.10;0.10;;;;;;;;;;5080548;28;20238;-78
2023/05/27 08:28:26;;;;;;;0.00;0.00;;;;;;;;;;5092818;28;20227;-77
2023/05/27 08:30:54;;;;;;;0.10;0.10;;;;;;;;;;5079716;28;20436;-75
2023/05/27 08:33:21;;;;;;;0.10;0.10;;;;;;;;;;5093639;28;20281;-78
2023/05/27 08:35:47;;;;;;;0.10;0.10;;;;;;;;;;5078680;28;20487;-75
2023/05/27 08:38:21;;;;;;;0.08;0.08;;;;;;;;;;5094112;28;20234;-73
2023/05/27 08:40:48;;;;;;;0.10;0.10;;;;;;;;;;5078546;28;20263;-78
2023/05/27 08:43:14;;;;;;;0.10;0.10;;;;;;;;;;5094003;28;20211;-76
2023/05/27 08:45:43;;;;;;;0.10;0.10;;;;;;;;;;5077454;28;20249;-75
2023/05/27 08:49:20;;;;;;;0.10;0.10;;;;;;;;;;5101548;28;20691;-77
2023/05/27 08:51:47;;;;;;;0.10;0.10;;;;;;;;;;5090103;28;20246;-75
2023/05/27 08:54:13;;;;;;;0.10;0.10;;;;;;;;;;5066638;28;20388;-77
2023/05/27 08:56:40;;;;;;;0.10;0.10;;;;;;;;;;5075530;28;20299;-76
2023/05/27 08:59:07;;;;;;;0.10;0.10;;;;;;;;;;5068203;28;20256;-79
2023/05/27 09:01:34;;;;;;;0.10;0.10;;;;;;;;;;5073987;28;20259;-78
2023/05/27 09:04:00;;;;;;;2.00;1.85;;;;;;;;;;5069907;28;20206;-79
2023/05/27 09:06:28;;;;;;;0.10;0.10;;;;;;;;;;5071793;28;20567;-79
2023/05/27 09:08:55;;;;;;;0.10;0.10;;;;;;;;;;5070959;28;20526;-78
2023/05/27 09:11:22;;;;;;;0.10;0.10;;;;;;;;;;5070278;28;20238;-79
2023/05/27 09:13:56;;;;;;;2.03;1.35;;;;;;;;;;5072969;28;20243;-79
2023/05/27 09:16:23;;;;;;;0.10;0.10;;;;;;;;;;5070591;28;20306;-79
2023/05/27 09:18:50;;;;;;;0.10;0.10;;;;;;;;;;5072186;28;20238;-83
2023/05/27 09:21:17;;;;;;;0.10;0.10;;;;;;;;;;5068980;28;20263;-82
2023/05/27 09:23:45;;;;;;;0.40;0.40;;;;;;;;;;5074177;28;20206;-83
2023/05/27 09:26:11;;;;;;;0.10;0.10;;;;;;;;;;5067705;28;20491;-78
2023/05/27 09:33:24;;;;;;;0.10;0.10;;;;;;;;;;5101669;28;20920;-74
2023/05/27 09:35:51;;;;;;;0.10;0.10;;;;;;;;;;5090436;28;20238;-76
2023/05/27 09:38:17;;;;;;;0.10;0.10;;;;;;;;;;5081706;28;20444;-76
2023/05/27 09:40:44;;;;;;;0.10;0.10;;;;;;;;;;5060267;28;20239;-76
2023/05/27 09:43:13;;;;;;;0.08;0.08;;;;;;;;;;5082960;28;20277;-76
2023/05/27 09:45:40;;;;;;;0.00;0.00;;;;;;;;;;5059241;28;20598;-76
2023/05/27 09:48:07;;;;;;;0.10;0.10;;;;;;;;;;5084127;28;20211;-76
2023/05/27 09:50:35;;;;;;;0.10;0.10;;;;;;;;;;5057335;28;20239;-75
2023/05/27 09:53:04;;;;;;;0.10;0.10;;;;;;;;;;5085636;28;20235;-76
2023/05/27 09:55:30;;;;;;;0.03;0.03;;;;;;;;;;5056351;28;20259;-77
2023/05/27 09:57:57;;;;;;;0.00;0.00;;;;;;;;;;5086478;28;20431;-75
2023/05/27 10:00:24;;;;;;;0.00;0.00;;;;;;;;;;5054967;28;20213;-76
2023/05/27 10:02:51;;;;;;;0.03;0.03;;;;;;;;;;5088642;28;20209;-77
2023/05/27 10:05:20;;;;;;;0.10;0.10;;;;;;;;;;5052615;28;20235;-76
2023/05/27 10:07:48;;;;;;;0.00;0.00;;;;;;;;;;5089809;28;20528;-78
2023/05/27 10:10:16;;;;;;;0.00;0.00;;;;;;;;;;5052129;28;20280;-80
2023/05/27 10:12:43;;;;;;;0.10;0.10;;;;;;;;;;5090326;28;20231;-79
2023/05/27 10:15:10;;;;;;;0.10;0.10;;;;;;;;;;5050828;28;20514;-79
2023/05/27 10:17:43;;;;;;;0.00;0.00;;;;;;;;;;5091844;28;20264;-78
2023/05/27 10:30:16;;;;;;;0.10;0.10;;;;;;;;;;5111458;27;20544;-78
2023/05/27 10:32:44;;;;;;;0.10;0.10;;;;;;;;;;5111177;28;20268;-77
2023/05/27 10:35:10;;;;;;;0.03;0.03;;;;;;;;;;5071197;28;20269;-77
2023/05/27 10:37:37;;;;;;;0.10;0.10;;;;;;;;;;5112429;28;20240;-77
2023/05/27 10:40:06;;;;;;;0.10;0.10;;;;;;;;;;5081386;28;20526;-78
2023/05/27 10:42:32;;;;;;;0.00;0.00;;;;;;;;;;5069487;28;20258;-79
2023/05/27 10:45:06;;;;;;;0.08;0.08;;;;;;;;;;5081233;28;20234;-79
2023/05/27 10:47:35;;;;;;;0.20;0.20;;;;;;;;;;5102877;28;20563;-77
2023/05/27 10:50:10;;;;;;;0.10;0.10;;;;;;;;;;5080479;28;20231;-77
2023/05/27 10:52:38;;;;;;;0.05;0.05;;;;;;;;;;5049568;28;20413;-74
2023/05/27 10:55:05;;;;;;;0.05;0.05;;;;;;;;;;5060976;28;20214;-76
2023/05/27 10:57:32;;;;;;;0.00;0.00;;;;;;;;;;5066041;28;20248;-78
2023/05/27 11:00:01;;;;;;;0.00;0.00;;;;;;;;;;5060855;28;20221;-79
2023/05/27 11:02:30;;;;;;;0.10;0.10;;;;;;;;;;5065948;28;20454;-78
2023/05/27 11:04:58;;;;;;;0.03;0.03;;;;;;;;;;5060729;28;20406;-79
2023/05/27 11:07:25;;;;;;;0.10;0.10;;;;;;;;;;5065895;28;20248;-75
2023/05/27 11:09:52;;;;;;;0.10;0.10;;;;;;;;;;5060570;28;20396;-77
2023/05/27 11:12:20;;;;;;;0.05;0.05;;;;;;;;;;5065774;28;20306;-76
2023/05/27 11:14:47;;;;;;;0.03;0.03;;;;;;;;;;5060537;28;20276;-76
2023/05/27 11:17:13;;;;;;;0.00;0.00;;;;;;;;;;5065705;28;20242;-77
2023/05/27 11:19:40;;;;;;;0.05;0.05;;;;;;;;;;5060504;28;20253;-76
2023/05/27 11:22:08;;;;;;;0.00;0.00;;;;;;;;;;5065356;28;20303;-77
2023/05/27 11:24:35;;;;;;;0.00;0.00;;;;;;;;;;5060391;28;20242;-76
2023/05/27 11:27:09;;;;;;;0.08;0.08;;;;;;;;;;5064744;28;20242;-77
2023/05/27 11:29:35;;;;;;;0.00;0.00;;;;;;;;;;5059563;28;20232;-76
2023/05/27 11:32:01;;;;;;;0.00;0.00;;;;;;;;;;5064579;28;20483;-75
2023/05/27 11:34:28;;;;;;;0.00;0.00;;;;;;;;;;5060853;28;20500;-75
2023/05/27 11:36:55;;;;;;;0.10;0.10;;;;;;;;;;5063681;28;20265;-76
2023/05/27 11:39:23;;;;;;;0.00;0.00;;;;;;;;;;5061161;28;20203;-75
2023/05/27 11:41:51;;;;;;;0.00;0.00;;;;;;;;;;5049121;28;20578;-76
2023/05/27 11:44:18;;;;;;;0.00;0.00;;;;;;;;;;5048771;28;20358;-76
2023/05/27 11:46:45;;;;;;;0.15;0.15;;;;;;;;;;5048712;28;20262;-76
2023/05/27 11:49:14;;;;;;;0.25;0.25;;;;;;;;;;5048822;28;20259;-75
2023/05/27 11:51:41;;;;;;;0.00;0.00;;;;;;;;;;5048151;28;20252;-76
2023/05/27 11:54:08;;;;;;;0.00;0.00;;;;;;;;;;5049665;28;20214;-76
2023/05/27 11:56:35;;;;;;;0.00;0.00;;;;;;;;;;5047335;28;20440;-76
2023/05/27 11:59:02;;;;;;;0.10;0.10;;;;;;;;;;5050423;28;20251;-76
2023/05/27 12:01:28;;;;;;;0.00;0.00;;;;;;;;;;5046103;28;20319;-75
2023/05/27 12:03:55;;;;;;;0.05;0.05;;;;;;;;;;5051080;28;20272;-76
2023/05/27 12:06:21;;;;;;;0.08;0.08;;;;;;;;;;5045429;28;20243;-76
2023/05/27 12:08:47;;;;;;;0.05;0.05;;;;;;;;;;5052099;28;20256;-76
2023/05/27 12:11:14;;;;;;;0.10;0.10;;;;;;;;;;5044615;28;20240;-75
2023/05/27 12:13:42;;;;;;;0.00;0.00;;;;;;;;;;5052810;28;20395;-75
2023/05/27 12:16:08;;;;;;;0.10;0.10;;;;;;;;;;5043799;28;20298;-74
2023/05/27 12:18:35;;;;;;;0.00;0.00;;;;;;;;;;5053521;28;20394;-75
2023/05/27 12:21:01;;;;;;;0.10;0.10;;;;;;;;;;5042739;28;20568;-75
2023/05/27 12:23:27;;;;;;;0.05;0.05;;;;;;;;;;5054361;28;20388;-75
2023/05/27 12:25:54;;;;;;;0.00;0.00;;;;;;;;;;5041430;28;20255;-75
2023/05/27 12:28:20;;;;;;;0.00;0.00;;;;;;;;;;5054958;28;20222;-75
2023/05/27 12:30:48;;;;;;;0.00;0.00;;;;;;;;;;5040431;28;20347;-75
2023/05/27 12:33:15;;;;;;;0.00;0.00;;;;;;;;;;5055649;28;20212;-76
2023/05/27 12:35:41;;;;;;;0.08;0.08;;;;;;;;;;5039884;28;20247;-77
2023/05/27 12:38:08;;;;;;;0.00;0.00;;;;;;;;;;5057067;28;20219;-79
2023/05/27 12:40:34;;;;;;;0.00;0.00;;;;;;;;;;5039554;28;20263;-80
2023/05/27 12:43:03;;;;;;;0.00;0.00;;;;;;;;;;5058293;28;20229;-80
2023/05/27 12:45:29;;;;;;;0.00;0.00;;;;;;;;;;5039184;28;20287;-80
2023/05/27 12:47:57;;;;;;;0.00;0.00;;;;;;;;;;5059144;28;20201;-79
2023/05/27 12:50:23;;;;;;;0.10;0.10;;;;;;;;;;5038008;28;20283;-80
2023/05/27 12:52:51;;;;;;;0.00;0.00;;;;;;;;;;5058053;28;20276;-79
2023/05/27 12:55:18;;;;;;;0.00;0.00;;;;;;;;;;5036578;28;20236;-80
2023/05/27 12:57:45;;;;;;;0.00;0.00;;;;;;;;;;5058861;28;20207;-78
2023/05/27 13:00:12;;;;;;;0.10;0.10;;;;;;;;;;5035376;28;20204;-79
2023/05/27 13:02:38;;;;;;;0.08;0.08;;;;;;;;;;5059904;28;20259;-79
2023/05/27 13:05:07;;;;;;;0.00;0.00;;;;;;;;;;5045396;28;20448;-77
2023/05/27 13:07:33;;;;;;;0.00;0.00;;;;;;;;;;5033397;28;20272;-78
2023/05/27 13:10:02;;;;;;;0.00;0.00;;;;;;;;;;5045099;28;20228;-78
2023/05/27 13:12:29;;;;;;;0.00;0.00;;;;;;;;;;5050234;28;20260;-78
2023/05/27 13:14:55;;;;;;;0.00;0.00;;;;;;;;;;5045318;28;20266;-78
2023/05/27 13:17:22;;;;;;;0.05;0.05;;;;;;;;;;5050383;28;20512;-78
2023/05/27 13:19:48;;;;;;;0.00;0.00;;;;;;;;;;5044944;28;20201;-79
2023/05/27 13:22:16;;;;;;;0.10;0.10;;;;;;;;;;5049975;28;20278;-78
2023/05/27 13:24:43;;;;;;;0.00;0.00;;;;;;;;;;5044775;28;20216;-78
2023/05/27 13:27:09;;;;;;;0.00;0.00;;;;;;;;;;5049924;28;20456;-79
2023/05/27 13:29:36;;;;;;;0.00;0.00;;;;;;;;;;5044154;28;20260;-78
2023/05/27 13:32:03;;;;;;;0.00;0.00;;;;;;;;;;5049172;28;20243;-79
2023/05/27 13:34:29;;;;;;;0.00;0.00;;;;;;;;;;5044717;28;20233;-78
2023/05/27 13:36:56;;;;;;;0.00;0.00;;;;;;;;;;5048298;28;20444;-78
2023/05/27 13:39:24;;;;;;;0.00;0.00;;;;;;;;;;5045922;28;20271;-78
2023/05/27 13:41:50;;;;;;;0.00;0.00;;;;;;;;;;5047183;28;20259;-79
2023/05/27 13:44:17;;;;;;;0.00;0.00;;;;;;;;;;5046647;28;20233;-78
2023/05/27 13:46:43;;;;;;;0.00;0.00;;;;;;;;;;5046424;28;20247;-80
2023/05/27 13:49:09;;;;;;;0.00;0.00;;;;;;;;;;5047349;28;20232;-79
2023/05/27 13:51:43;;;;;;;0.00;0.00;;;;;;;;;;5045346;28;20247;-79
2023/05/27 13:54:09;;;;;;;0.08;0.08;;;;;;;;;;5047294;28;20236;-80
2023/05/27 13:56:37;;;;;;;0.10;0.10;;;;;;;;;;5045302;28;20500;-79
2023/05/27 13:59:04;;;;;;;0.00;0.00;;;;;;;;;;5047859;28;20228;-79
2023/05/27 14:01:30;;;;;;;0.00;0.00;;;;;;;;;;5044473;28;20282;-78
2023/05/27 14:03:57;;;;;;;0.00;0.00;;;;;;;;;;5048575;28;20208;-79
2023/05/27 14:06:24;;;;;;;0.00;0.00;;;;;;;;;;5043371;28;20244;-79
2023/05/27 14:08:50;;;;;;;0.00;0.00;;;;;;;;;;5049692;28;20422;-79
2023/05/27 14:11:16;;;;;;;0.00;0.00;;;;;;;;;;5042610;28;20307;-79
2023/05/27 14:13:45;;;;;;;0.10;0.10;;;;;;;;;;5050228;28;20212;-78
2023/05/27 14:16:12;;;;;;;0.00;0.00;;;;;;;;;;5041880;28;20324;-78
2023/05/27 14:18:38;;;;;;;0.00;0.00;;;;;;;;;;5050992;28;20441;-79
2023/05/27 14:21:05;;;;;;;0.00;0.00;;;;;;;;;;5041042;28;20243;-79
2023/05/27 14:23:31;;;;;;;0.00;0.00;;;;;;;;;;5051822;28;20216;-79
2023/05/27 14:25:57;;;;;;;0.03;0.03;;;;;;;;;;5039878;28;20246;-79
2023/05/27 14:28:24;;;;;;;0.00;0.00;;;;;;;;;;5052545;28;20239;-79
2023/05/27 14:30:52;;;;;;;0.00;0.00;;;;;;;;;;5038890;28;20259;-78
2023/05/27 14:33:19;;;;;;;0.00;0.00;;;;;;;;;;5053149;28;20215;-79
2023/05/27 14:35:46;;;;;;;0.00;0.00;;;;;;;;;;5038150;28;20240;-79
2023/05/27 14:38:14;;;;;;;0.08;0.08;;;;;;;;;;5053727;28;20239;-79
2023/05/27 14:40:40;;;;;;;0.08;0.08;;;;;;;;;;5037467;28;20240;-79
2023/05/27 14:43:06;;;;;;;0.00;0.00;;;;;;;;;;5054925;28;20208;-79
2023/05/27 14:45:33;;;;;;;0.00;0.00;;;;;;;;;;5036667;28;20239;-78
2023/05/27 14:48:01;;;;;;;0.00;0.00;;;;;;;;;;5055628;28;20411;-79
2023/05/27 14:50:27;;;;;;;0.00;0.00;;;;;;;;;;5035805;28;20256;-79
2023/05/27 14:52:54;;;;;;;0.00;0.00;;;;;;;;;;5056386;28;20445;-79
2023/05/27 14:55:21;;;;;;;0.00;0.00;;;;;;;;;;5034900;28;20223;-79
2023/05/27 14:57:47;;;;;;;0.08;0.08;;;;;;;;;;5057070;28;20195;-78